Fort Benton, MT (59442)

8:00 AM MST on February 07, 2016 (GMT -0700)
1215 26th Street | | Change Station
CLOSE
Current Station
Personal Weather Station
Location: Fort Benton, MT
Elevation: 2648 ft
Nearby Weather Stations

Elev 2648 ft 47.83 °N, 110.66 °W | Updated 20 seconds ago

Clear
Clear
23.2 °F
Feels Like 23 °F
N
0.0
Wind Variable Wind from NNE
Gusts 0.0 mph

Today
High -- | Low -- °F
--% Chance of Precip.
Yesterday
High -- | Low -- °F
Precip. -- in
Pressure 30.55 in
Visibility 10.0 miles
Clouds Clear
Windchill 23 °F
Dew Point 12 °F
Humidity 63%
Rainfall 0.00 in
Snow Depth Not available.
7:41 AM 5:32 PM
Waning Crescent, 1% visible
METAR KGFA 071358Z AUTO 23008KT 10SM CLR M06/M09 A3041 RMK AO2 SLP343 T10591090 TSNO $
Pressure 30.55 in
Visibility 10.0 miles
Clouds Clear
Windchill 23 °F
Dew Point 12 °F
Humidity 63%
Rainfall 0.00 in
Snow Depth Not available.
7:41 AM 5:32 PM
Waning Crescent, 1% visible
METAR KGFA 071358Z AUTO 23008KT 10SM CLR M06/M09 A3041 RMK AO2 SLP343 T10591090 TSNO $

10-Day Weather Forecast

Almanac

Astronomy

Feb. 07, 2016 Rise Set
Actual Time
Civil Twilight
Nautical Twilight
Astronomical Twilight
Moon
Length of Visible Light
Length of Day
Tomorrow will be .
, % of the Moon is Illuminated

Today's Extremes

State Highs State Lows

Community

WunderPhotos

Upload Photos

1,891,205 photos uploaded!

WunderBlog® & News

Nearby

Air Quality

  Air Quality AQ Index Pollutant
Not available.

Snow Depth

Station Depth Elevation

Earthquake Activity

City Distance Mag. Time & Date
Minimum magnitude displayed is 2.5.

Coastal Water Temperatures

Place Temperature

Stations

Nearby Weather Stations

Station Location Temp. Windchill Dew Point Humidity Wind Precip. Elev Updated Type
                   

Watches & Warnings

There are currently no watches in effect.